createdAt,value
2022-08-03T00:01:48.126Z,5.55
2022-08-03T00:04:14.463Z,5.50
2022-08-03T00:06:40.820Z,5.53
2022-08-03T00:09:07.498Z,5.90
2022-08-03T00:11:34.054Z,6.25
2022-08-03T00:14:01.272Z,5.85
2022-08-03T00:16:27.609Z,5.00
2022-08-03T00:18:54.006Z,5.45
2022-08-03T00:21:20.366Z,5.63
2022-08-03T00:23:51.369Z,5.80
2022-08-03T00:26:19.605Z,6.00
2022-08-03T00:28:46.006Z,5.72
2022-08-03T00:31:13.427Z,5.35
2022-08-03T00:33:59.174Z,6.03
2022-08-03T00:36:27.406Z,5.90
2022-08-03T00:38:53.844Z,6.05
2022-08-03T00:41:20.248Z,5.93
2022-08-03T00:43:46.651Z,6.05
2022-08-03T00:46:16.429Z,6.72
2022-08-03T00:48:47.095Z,6.32
2022-08-03T00:51:13.567Z,6.32
2022-08-03T00:53:39.954Z,6.38
2022-08-03T00:56:06.334Z,6.43
2022-08-03T00:58:32.771Z,5.65
2022-08-03T01:00:59.207Z,5.75
2022-08-03T01:03:25.739Z,6.30
2022-08-03T01:05:54.715Z,6.55
2022-08-03T01:08:46.656Z,6.18
2022-08-03T01:12:00.543Z,6.50
2022-08-03T01:14:37.054Z,6.47
2022-08-03T01:17:30.620Z,7.60
2022-08-03T01:20:08.106Z,6.38
2022-08-03T01:22:51.707Z,6.97
2022-08-03T01:25:42.885Z,6.38
2022-08-03T01:28:45.167Z,7.25
2022-08-03T01:31:14.203Z,5.90
2022-08-03T01:33:51.041Z,6.00
2022-08-03T01:36:22.718Z,6.40
2022-08-03T01:38:58.640Z,6.53
2022-08-03T01:41:30.763Z,6.80
2022-08-03T01:44:27.416Z,6.50
2022-08-03T01:46:48.901Z,6.43
2022-08-03T01:49:16.732Z,6.55
2022-08-03T01:52:03.617Z,5.97
2022-08-03T01:54:32.613Z,7.15
2022-08-03T01:56:59.658Z,6.65
2022-08-03T01:59:28.953Z,6.72
2022-08-03T02:02:28.443Z,6.63
2022-08-03T02:04:46.865Z,7.70
2022-08-03T02:07:15.166Z,7.07
2022-08-03T02:09:44.716Z,7.30
2022-08-03T02:12:13.733Z,7.32
2022-08-03T02:14:43.137Z,7.35
2022-08-03T02:17:10.423Z,6.53
2022-08-03T02:19:38.674Z,7.07
2022-08-03T02:22:08.282Z,6.93
2022-08-03T02:24:34.754Z,6.57
2022-08-03T02:27:04.092Z,6.65
2022-08-03T02:29:39.629Z,6.32
2022-08-03T02:32:09.911Z,6.65
2022-08-03T02:34:37.661Z,6.82
2022-08-03T02:37:04.657Z,6.65
2022-08-03T02:39:34.170Z,6.22
2022-08-03T02:42:01.371Z,7.20
2022-08-03T02:44:30.510Z,6.28
2022-08-03T02:47:01.940Z,6.70
2022-08-03T02:49:49.445Z,6.40
2022-08-03T02:52:18.206Z,6.43
2022-08-03T02:54:47.744Z,6.43
2022-08-03T02:57:16.027Z,6.13
2022-08-03T02:59:44.250Z,7.13
2022-08-03T03:02:12.162Z,6.65
2022-08-03T03:04:38.971Z,7.35
2022-08-03T03:07:26.719Z,6.20
2022-08-03T03:09:55.459Z,6.93
2022-08-03T03:12:22.535Z,7.07
2022-08-03T03:14:49.006Z,6.68
2022-08-03T03:17:17.228Z,6.55
2022-08-03T03:19:45.114Z,5.80
2022-08-03T03:22:13.110Z,6.15
2022-08-03T03:24:41.575Z,6.07
2022-08-03T03:27:08.671Z,6.18
2022-08-03T03:29:39.156Z,6.30
2022-08-03T03:32:08.229Z,7.03
2022-08-03T03:34:36.487Z,6.70
2022-08-03T03:37:02.882Z,5.65
2022-08-03T03:39:29.360Z,6.20
2022-08-03T03:41:55.905Z,6.32
2022-08-03T03:44:22.277Z,6.60
2022-08-03T03:46:48.658Z,6.22
2022-08-03T03:49:15.684Z,6.75
2022-08-03T03:51:42.101Z,6.70
2022-08-03T03:54:08.444Z,6.40
2022-08-03T03:56:34.816Z,6.70
2022-08-03T03:59:01.214Z,6.40
2022-08-03T04:01:27.619Z,6.57
2022-08-03T04:03:54.033Z,6.68
2022-08-03T04:06:20.562Z,6.28
2022-08-03T04:08:46.890Z,6.40
2022-08-03T04:11:34.109Z,6.65
2022-08-03T04:14:04.960Z,5.68
2022-08-03T04:16:35.023Z,6.10
2022-08-03T04:19:05.222Z,6.88
2022-08-03T04:21:33.960Z,5.93
2022-08-03T04:24:03.697Z,6.00
2022-08-03T04:26:33.693Z,5.90
2022-08-03T04:29:00.904Z,5.80
2022-08-03T04:31:28.214Z,6.03
2022-08-03T04:33:55.325Z,6.43
2022-08-03T04:36:25.900Z,5.53
2022-08-03T04:39:04.315Z,5.28
2022-08-03T04:41:32.071Z,5.57
2022-08-03T04:44:20.381Z,5.88
2022-08-03T04:46:52.523Z,5.40
2022-08-03T04:49:21.541Z,5.28
2022-08-03T04:51:49.032Z,5.32
2022-08-03T04:54:16.189Z,5.53
2022-08-03T04:56:45.554Z,4.97
2022-08-03T04:59:13.107Z,5.38
2022-08-03T05:01:40.364Z,5.25
2022-08-03T05:04:06.742Z,5.50
2022-08-03T05:06:33.091Z,5.10
2022-08-03T05:08:59.613Z,4.70
2022-08-03T05:11:26.064Z,4.30
2022-08-03T05:13:52.454Z,5.40
2022-08-03T05:16:18.915Z,5.00
2022-08-03T05:18:45.260Z,4.55
2022-08-03T05:21:13.462Z,4.60
2022-08-03T05:23:40.347Z,4.43
2022-08-03T05:26:06.870Z,4.57
2022-08-03T05:28:33.249Z,5.47
2022-08-03T05:30:59.591Z,5.25
2022-08-03T05:33:25.934Z,4.18
2022-08-03T05:36:00.709Z,4.18
2022-08-03T05:38:34.298Z,3.88
2022-08-03T05:41:22.294Z,3.97
2022-08-03T05:43:50.209Z,4.00
2022-08-03T05:46:16.582Z,4.32
2022-08-03T05:48:43.043Z,4.18
2022-08-03T05:51:09.435Z,4.03
2022-08-03T05:53:35.839Z,4.18
2022-08-03T05:56:13.201Z,3.92
2022-08-03T05:58:42.200Z,3.58
2022-08-03T06:01:08.563Z,3.70
2022-08-03T06:03:34.961Z,3.47
2022-08-03T06:06:01.349Z,3.40
2022-08-03T06:08:27.711Z,2.80
2022-08-03T06:10:54.054Z,3.83
2022-08-03T06:13:20.380Z,3.78
2022-08-03T06:15:46.746Z,3.30
2022-08-03T06:18:13.150Z,3.08
2022-08-03T06:20:39.498Z,3.00
2022-08-03T06:23:06.415Z,3.40
2022-08-03T06:25:33.894Z,2.92
2022-08-03T06:28:00.272Z,2.97
2022-08-03T06:30:26.800Z,3.78
2022-08-03T06:32:53.359Z,3.25
2022-08-03T06:35:19.906Z,3.00
2022-08-03T06:37:48.602Z,3.10
2022-08-03T06:40:21.911Z,3.10
2022-08-03T06:42:51.116Z,2.60
2022-08-03T06:45:18.045Z,2.35
2022-08-03T06:47:44.571Z,2.28
2022-08-03T06:50:16.780Z,2.97
2022-08-03T06:52:43.794Z,3.10
2022-08-03T06:55:10.144Z,2.72
2022-08-03T06:57:36.467Z,2.55
2022-08-03T07:00:09.304Z,2.58
2022-08-03T07:02:38.738Z,2.58
2022-08-03T07:05:06.054Z,2.78
2022-08-03T07:07:32.447Z,3.05
2022-08-03T07:09:58.796Z,2.25
2022-08-03T07:12:28.785Z,3.05
2022-08-03T07:15:00.249Z,2.80
2022-08-03T07:17:30.160Z,2.75
2022-08-03T07:19:57.055Z,3.00
2022-08-03T07:22:23.591Z,2.80
2022-08-03T07:24:49.925Z,3.13
2022-08-03T07:27:16.810Z,2.67
2022-08-03T07:29:43.171Z,2.70
2022-08-03T07:32:09.616Z,2.70
2022-08-03T07:34:36.008Z,2.90
2022-08-03T07:37:02.388Z,2.67
2022-08-03T07:39:28.840Z,2.58
2022-08-03T07:41:55.184Z,2.53
2022-08-03T07:44:21.660Z,2.70
2022-08-03T07:46:48.175Z,2.67
2022-08-03T07:49:14.591Z,2.42
2022-08-03T07:51:40.974Z,2.70
2022-08-03T07:54:07.301Z,2.40
2022-08-03T07:56:33.753Z,2.40
2022-08-03T07:59:00.215Z,2.22
2022-08-03T08:01:26.599Z,2.42
2022-08-03T08:03:53.737Z,1.90
2022-08-03T08:06:20.723Z,1.92
2022-08-03T08:08:47.441Z,2.00
2022-08-03T08:11:13.889Z,2.00
2022-08-03T08:13:40.213Z,2.05
2022-08-03T08:16:06.557Z,2.00
2022-08-03T08:18:33.069Z,2.30
2022-08-03T08:20:59.398Z,2.40
2022-08-03T08:23:42.261Z,2.35
2022-08-03T08:28:36.893Z,2.40
2022-08-03T08:31:03.291Z,2.00
2022-08-03T08:33:42.474Z,2.30
2022-08-03T08:36:16.110Z,1.90
2022-08-03T08:38:43.589Z,1.95
2022-08-03T08:41:11.207Z,1.90
2022-08-03T08:43:37.747Z,1.75
2022-08-03T08:46:05.939Z,1.63
2022-08-03T08:48:32.342Z,1.70
2022-08-03T08:51:00.692Z,1.90
2022-08-03T08:53:31.426Z,1.98
2022-08-03T08:56:00.857Z,2.00
2022-08-03T08:58:37.213Z,1.92
2022-08-03T09:01:05.046Z,1.88
2022-08-03T09:03:33.979Z,1.90
2022-08-03T09:06:01.607Z,1.80
2022-08-03T09:08:32.827Z,2.58
2022-08-03T09:10:59.848Z,1.58
2022-08-03T09:13:26.372Z,2.22
2022-08-03T09:16:11.231Z,2.00
2022-08-03T09:18:38.074Z,2.00
2022-08-03T09:21:33.199Z,2.22
2022-08-03T09:24:03.661Z,2.42
2022-08-03T09:26:32.217Z,2.30
2022-08-03T09:29:05.615Z,2.33
2022-08-03T09:31:43.573Z,2.53
2022-08-03T09:34:16.734Z,2.30
2022-08-03T09:36:44.425Z,2.47
2022-08-03T09:39:13.070Z,2.25
2022-08-03T09:41:41.695Z,2.80
2022-08-03T09:44:08.355Z,2.22
2022-08-03T09:46:51.848Z,2.53
2022-08-03T09:49:18.728Z,2.58
2022-08-03T09:52:32.046Z,2.65
2022-08-03T09:54:32.607Z,2.45
2022-08-03T09:56:59.188Z,2.33
2022-08-03T09:59:28.118Z,2.75
2022-08-03T10:01:55.981Z,2.25
2022-08-03T10:04:23.148Z,2.00
2022-08-03T10:07:09.468Z,2.30
2022-08-03T10:09:37.174Z,2.63
2022-08-03T10:12:13.828Z,2.63
2022-08-03T10:14:41.689Z,2.75
2022-08-03T10:17:09.558Z,2.72
2022-08-03T10:19:35.973Z,2.20
2022-08-03T10:22:13.750Z,2.05
2022-08-03T10:24:47.586Z,2.22
2022-08-03T10:27:15.629Z,2.45
2022-08-03T10:29:45.911Z,2.30
2022-08-03T10:32:31.328Z,2.08
2022-08-03T10:35:19.148Z,1.83
2022-08-03T10:38:03.271Z,2.20
2022-08-03T10:40:49.589Z,2.00
2022-08-03T10:43:25.937Z,2.53
2022-08-03T10:45:52.493Z,2.30
2022-08-03T10:48:19.828Z,2.33
2022-08-03T10:50:48.266Z,2.10
2022-08-03T10:53:14.788Z,1.90
2022-08-03T10:55:46.334Z,2.00
2022-08-03T10:58:12.692Z,1.98
2022-08-03T11:00:56.693Z,2.30
2022-08-03T11:03:23.139Z,2.40
2022-08-03T11:05:49.584Z,1.73
2022-08-03T11:08:21.680Z,1.88
2022-08-03T11:10:50.608Z,1.50
2022-08-03T11:13:20.003Z,1.60
2022-08-03T11:15:49.653Z,1.60
2022-08-03T11:18:16.057Z,1.50
2022-08-03T11:20:49.906Z,1.70
2022-08-03T11:23:18.096Z,1.70
2022-08-03T11:26:10.255Z,1.85
2022-08-03T11:28:37.088Z,1.55
2022-08-03T11:34:16.602Z,1.50
2022-08-03T11:37:21.859Z,1.80
2022-08-03T11:39:50.235Z,2.00
2022-08-03T11:42:22.457Z,1.80
2022-08-03T11:44:59.161Z,2.03
2022-08-03T11:47:27.865Z,1.90
2022-08-03T11:49:56.988Z,1.73
2022-08-03T11:52:27.018Z,2.17
2022-08-03T11:54:57.051Z,2.00
2022-08-03T11:59:01.554Z,1.90
2022-08-03T12:00:22.841Z,2.30
2022-08-03T12:03:04.872Z,1.90
2022-08-03T12:05:51.909Z,2.15
2022-08-03T12:08:27.814Z,2.03
2022-08-03T12:10:55.985Z,1.95
2022-08-03T12:14:33.127Z,2.35
2022-08-03T12:16:09.694Z,2.15
2022-08-03T12:18:36.375Z,2.30
2022-08-03T12:21:08.562Z,2.30
2022-08-03T12:23:37.805Z,2.20
2022-08-03T12:26:09.907Z,1.95
2022-08-03T12:28:38.335Z,2.40
2022-08-03T12:31:07.694Z,1.95
2022-08-03T12:34:01.679Z,2.13
2022-08-03T12:36:29.331Z,2.45
2022-08-03T12:39:05.398Z,1.95
2022-08-03T12:41:38.167Z,2.30
2022-08-03T12:44:06.741Z,2.08
2022-08-03T12:46:33.002Z,2.20
2022-08-03T12:49:07.984Z,1.98
2022-08-03T12:51:56.050Z,2.92
2022-08-03T12:54:25.093Z,2.13
2022-08-03T12:57:06.006Z,2.60
2022-08-03T12:59:40.427Z,2.60
2022-08-03T13:02:14.019Z,2.30
2022-08-03T13:07:12.872Z,2.90
2022-08-03T13:09:47.582Z,2.60
2022-08-03T13:12:16.302Z,2.33
2022-08-03T13:14:44.212Z,2.20
2022-08-03T13:17:11.359Z,1.80
2022-08-03T13:19:39.622Z,2.13
2022-08-03T13:22:13.837Z,2.20
2022-08-03T13:28:01.464Z,2.13
2022-08-03T13:29:53.868Z,2.00
2022-08-03T13:32:21.254Z,2.25
2022-08-03T13:34:48.074Z,2.28
2022-08-03T13:37:15.062Z,2.30
2022-08-03T13:39:58.149Z,2.42
2022-08-03T13:42:26.731Z,2.20
2022-08-03T13:44:53.071Z,2.20
2022-08-03T13:47:20.203Z,1.67
2022-08-03T13:49:59.918Z,1.85
2022-08-03T13:52:32.118Z,1.90
2022-08-03T13:54:58.582Z,2.17
2022-08-03T13:58:05.033Z,2.38
2022-08-03T14:00:11.803Z,2.17
2022-08-03T14:02:38.407Z,1.83
2022-08-03T14:05:05.214Z,1.95
2022-08-03T14:07:31.598Z,2.30
2022-08-03T14:09:57.946Z,2.03
2022-08-03T14:12:24.324Z,2.03
2022-08-03T14:14:50.657Z,2.22
2022-08-03T14:17:17.103Z,2.15
2022-08-03T14:19:53.096Z,2.25
2022-08-03T14:22:20.743Z,2.10
2022-08-03T14:24:47.119Z,2.20
2022-08-03T14:27:13.456Z,2.15
2022-08-03T14:29:39.815Z,2.33
2022-08-03T14:32:10.874Z,2.40
2022-08-03T14:34:39.405Z,2.30
2022-08-03T14:37:05.783Z,2.47
2022-08-03T14:42:18.537Z,2.00
2022-08-03T14:44:44.879Z,2.17
2022-08-03T14:47:11.215Z,2.30
2022-08-03T14:50:37.431Z,1.85
2022-08-03T14:52:24.019Z,1.90
2022-08-03T14:54:50.356Z,2.40
2022-08-03T14:57:16.788Z,2.30
2022-08-03T14:59:56.127Z,1.80
2022-08-03T15:02:24.618Z,2.45
2022-08-03T15:04:51.450Z,2.58
2022-08-03T15:07:18.192Z,1.85
2022-08-03T15:09:44.819Z,2.05
2022-08-03T15:12:11.158Z,2.20
2022-08-03T15:14:38.650Z,2.10
2022-08-03T15:17:05.391Z,2.05
2022-08-03T15:20:01.134Z,1.70
2022-08-03T15:22:20.479Z,2.10
2022-08-03T15:24:47.257Z,1.63
2022-08-03T15:27:13.591Z,2.00
2022-08-03T15:30:08.849Z,2.15
2022-08-03T15:32:26.230Z,2.10
2022-08-03T15:34:52.701Z,2.17
2022-08-03T15:37:19.924Z,2.30
2022-08-03T15:39:59.443Z,2.40
2022-08-03T15:42:28.545Z,2.30
2022-08-03T15:44:54.955Z,1.90
2022-08-03T15:47:21.646Z,1.95
2022-08-03T15:49:48.211Z,2.20
2022-08-03T15:52:14.538Z,2.05
2022-08-03T15:54:40.909Z,2.05
2022-08-03T15:57:07.317Z,2.00
2022-08-03T15:59:33.884Z,1.92
2022-08-03T16:02:00.340Z,2.72
2022-08-03T16:04:26.780Z,2.67
2022-08-03T16:06:53.298Z,2.35
2022-08-03T16:09:22.995Z,2.25
2022-08-03T16:12:11.862Z,1.90
2022-08-03T16:14:51.818Z,2.20
2022-08-03T16:17:20.559Z,1.98
2022-08-03T16:19:47.160Z,2.17
2022-08-03T16:22:14.366Z,2.10
2022-08-03T16:24:41.117Z,2.13
2022-08-03T16:27:12.865Z,2.30
2022-08-03T16:29:44.181Z,2.50
2022-08-03T16:32:11.066Z,2.10
2022-08-03T16:34:38.399Z,2.53
2022-08-03T16:37:22.461Z,2.08
2022-08-03T16:39:52.620Z,1.63
2022-08-03T16:42:19.192Z,2.13
2022-08-03T16:44:45.527Z,2.45
2022-08-03T16:47:21.695Z,1.90
2022-08-03T16:49:54.012Z,2.00
2022-08-03T16:52:23.581Z,2.00
2022-08-03T16:54:53.210Z,2.00
2022-08-03T16:57:58.748Z,1.98
2022-08-03T17:00:09.591Z,1.58
2022-08-03T17:02:36.351Z,1.90
2022-08-03T17:05:03.308Z,2.00
2022-08-03T17:07:30.510Z,2.03
2022-08-03T17:09:57.543Z,2.00
2022-08-03T17:12:26.895Z,1.65
2022-08-03T17:14:54.257Z,1.67
2022-08-03T17:17:29.560Z,1.50
2022-08-03T17:19:57.974Z,1.60
2022-08-03T17:22:32.719Z,2.00
2022-08-03T17:25:08.507Z,1.70
2022-08-03T17:28:49.246Z,1.88
2022-08-03T17:30:25.328Z,1.85
2022-08-03T17:32:57.617Z,2.00
2022-08-03T17:35:34.349Z,1.63
2022-08-03T17:38:06.617Z,1.33
2022-08-03T17:40:35.516Z,2.17
2022-08-03T17:44:12.901Z,1.50
2022-08-03T17:45:55.132Z,1.73
2022-08-03T17:48:24.860Z,1.70
2022-08-03T17:50:59.633Z,1.30
2022-08-03T17:56:40.717Z,1.67
2022-08-03T17:59:13.570Z,1.50
2022-08-03T18:02:30.811Z,1.60
2022-08-03T18:05:16.603Z,2.10
2022-08-03T18:07:48.899Z,2.00
2022-08-03T18:10:26.216Z,1.88
2022-08-03T18:12:57.766Z,1.85
2022-08-03T18:15:34.691Z,1.50
2022-08-03T18:18:10.333Z,2.00
2022-08-03T18:20:41.766Z,1.70
2022-08-03T18:23:24.971Z,1.73
2022-08-03T18:26:05.183Z,2.33
2022-08-03T18:28:33.600Z,2.00
2022-08-03T18:31:04.256Z,1.40
2022-08-03T18:34:16.178Z,1.48
2022-08-03T18:36:30.081Z,2.13
2022-08-03T18:38:59.304Z,2.22
2022-08-03T18:41:32.921Z,1.50
2022-08-03T18:49:20.612Z,1.88
2022-08-03T18:51:56.132Z,2.08
2022-08-03T18:55:01.147Z,2.00
2022-08-03T18:57:44.294Z,1.90
2022-08-03T19:00:14.351Z,1.75
2022-08-03T19:02:48.663Z,1.90
2022-08-03T19:05:23.063Z,2.00
2022-08-03T19:07:59.781Z,1.88
2022-08-03T19:10:32.159Z,1.80
2022-08-03T19:13:16.947Z,1.98
2022-08-03T19:15:51.344Z,2.05
2022-08-03T19:18:20.827Z,2.00
2022-08-03T19:20:51.446Z,2.17
2022-08-03T19:23:25.572Z,1.83
2022-08-03T19:25:53.042Z,1.90
2022-08-03T19:28:30.067Z,1.83
2022-08-03T19:30:59.909Z,1.88
2022-08-03T19:33:31.075Z,2.13
2022-08-03T19:36:17.826Z,1.85
2022-08-03T19:38:54.462Z,1.52
2022-08-03T19:41:24.593Z,1.70
2022-08-03T19:43:59.433Z,2.20
2022-08-03T19:46:30.678Z,2.28
2022-08-03T19:49:10.340Z,2.40
2022-08-03T19:51:58.358Z,2.38
2022-08-03T19:54:36.975Z,2.15
2022-08-03T19:57:17.307Z,2.40
2022-08-03T19:59:50.053Z,2.45
2022-08-03T20:02:27.310Z,2.33
2022-08-03T20:04:57.933Z,2.20
2022-08-03T20:07:27.859Z,2.33
2022-08-03T20:09:56.697Z,2.72
2022-08-03T20:12:28.179Z,2.67
2022-08-03T20:14:57.136Z,2.10
2022-08-03T20:17:56.820Z,2.80
2022-08-03T20:20:10.067Z,2.75
2022-08-03T20:22:39.793Z,3.20
2022-08-03T20:25:07.841Z,2.80
2022-08-03T20:28:06.652Z,2.97
2022-08-03T20:30:33.082Z,3.10
2022-08-03T20:32:59.463Z,2.60
2022-08-03T20:35:25.808Z,2.70
2022-08-03T20:37:54.516Z,3.35
2022-08-03T20:40:22.626Z,2.60
2022-08-03T20:42:53.870Z,2.63
2022-08-03T20:46:01.077Z,2.78
2022-08-03T20:48:09.663Z,2.80
2022-08-03T20:50:40.323Z,3.22
2022-08-03T20:53:10.488Z,3.53
2022-08-03T20:55:47.549Z,3.60
2022-08-03T20:58:25.526Z,3.42
2022-08-03T21:00:53.658Z,4.00
2022-08-03T21:03:20.097Z,3.72
2022-08-03T21:05:53.547Z,3.85
2022-08-03T21:08:22.529Z,4.35
2022-08-03T21:10:50.017Z,4.00
2022-08-03T21:13:24.535Z,4.05
2022-08-03T21:16:03.319Z,4.43
2022-08-03T21:18:45.282Z,3.90
2022-08-03T21:21:15.110Z,3.80
2022-08-03T21:23:49.129Z,3.20
2022-08-03T21:26:18.345Z,4.00
2022-08-03T21:28:49.676Z,3.97
2022-08-03T21:31:23.725Z,3.42
2022-08-03T21:33:53.878Z,3.55
2022-08-03T21:36:20.291Z,3.85
2022-08-03T21:38:55.774Z,4.03
2022-08-03T21:41:23.543Z,4.40
2022-08-03T21:43:49.975Z,4.25
2022-08-03T21:46:19.037Z,4.72
2022-08-03T21:48:47.896Z,4.28
2022-08-03T21:51:17.226Z,4.75
2022-08-03T21:54:02.627Z,4.90
2022-08-03T21:56:40.145Z,3.97
2022-08-03T21:59:08.576Z,3.97
2022-08-03T22:01:39.531Z,4.60
2022-08-03T22:04:07.212Z,4.30
2022-08-03T22:06:36.047Z,4.63
2022-08-03T22:09:05.504Z,4.45
2022-08-03T22:11:36.219Z,4.43
2022-08-03T22:14:02.961Z,4.78
2022-08-03T22:16:30.174Z,4.40
2022-08-03T22:18:56.518Z,4.00
2022-08-03T22:21:36.394Z,3.70
2022-08-03T22:24:05.579Z,4.70
2022-08-03T22:26:35.397Z,5.03
2022-08-03T22:29:07.293Z,4.70
2022-08-03T22:31:58.381Z,4.75
2022-08-03T22:34:26.874Z,4.53
2022-08-03T22:36:57.302Z,4.47
2022-08-03T22:39:28.606Z,4.35
2022-08-03T22:41:57.426Z,4.40
2022-08-03T22:44:24.209Z,4.00
2022-08-03T22:46:50.607Z,4.32
2022-08-03T22:49:18.227Z,4.35
2022-08-03T22:51:44.776Z,4.20
2022-08-03T22:54:11.854Z,4.03
2022-08-03T22:56:38.765Z,4.05
2022-08-03T22:59:40.257Z,4.10
2022-08-03T23:02:00.304Z,4.80
2022-08-03T23:04:32.561Z,4.60
2022-08-03T23:07:02.958Z,4.15
2022-08-03T23:09:30.986Z,4.60
2022-08-03T23:12:00.884Z,5.35
2022-08-03T23:14:30.232Z,4.18
2022-08-03T23:17:02.769Z,4.53
2022-08-03T23:19:30.398Z,3.83
2022-08-03T23:22:04.063Z,3.70
2022-08-03T23:24:36.053Z,4.00
2022-08-03T23:27:04.299Z,4.13
2022-08-03T23:29:33.666Z,3.85
2022-08-03T23:32:01.611Z,4.00
2022-08-03T23:34:30.703Z,3.90
2022-08-03T23:36:58.246Z,4.00
2022-08-03T23:39:28.483Z,3.63
2022-08-03T23:42:01.603Z,3.97
2022-08-03T23:44:30.137Z,4.13
2022-08-03T23:46:57.248Z,4.03
2022-08-03T23:49:23.668Z,3.95
2022-08-03T23:52:09.306Z,3.83
2022-08-03T23:54:46.372Z,3.88
2022-08-03T23:57:47.054Z,3.33
